sensor_id;sensor_type;location;lat;lon;timestamp;temperature;humidity
60039;DHT22;45916;52.734;6.544;2023-11-21T00:01:31;8.50;99.90
60039;DHT22;45916;52.734;6.544;2023-11-21T00:03:58;8.40;99.90
60039;DHT22;45916;52.734;6.544;2023-11-21T00:06:23;8.50;99.90
60039;DHT22;45916;52.734;6.544;2023-11-21T00:08:49;8.50;99.90
60039;DHT22;45916;52.734;6.544;2023-11-21T00:11:15;8.50;99.90
60039;DHT22;45916;52.734;6.544;2023-11-21T00:13:40;8.50;99.90
60039;DHT22;45916;52.734;6.544;2023-11-21T00:16:06;8.40;99.90
60039;DHT22;45916;52.734;6.544;2023-11-21T00:18:33;8.40;99.90
60039;DHT22;45916;52.734;6.544;2023-11-21T00:20:58;8.40;99.90
60039;DHT22;45916;52.734;6.544;2023-11-21T00:23:24;8.40;99.90
60039;DHT22;45916;52.734;6.544;2023-11-21T00:25:50;8.40;99.90
60039;DHT22;45916;52.734;6.544;2023-11-21T00:28:16;8.50;99.90
60039;DHT22;45916;52.734;6.544;2023-11-21T00:30:42;8.50;99.90
60039;DHT22;45916;52.734;6.544;2023-11-21T00:33:07;8.50;99.90
60039;DHT22;45916;52.734;6.544;2023-11-21T00:35:33;8.50;99.90
60039;DHT22;45916;52.734;6.544;2023-11-21T00:37:58;8.50;99.90
60039;DHT22;45916;52.734;6.544;2023-11-21T00:40:24;8.50;99.90
60039;DHT22;45916;52.734;6.544;2023-11-21T00:42:50;8.50;99.90
60039;DHT22;45916;52.734;6.544;2023-11-21T00:45:16;8.60;99.90
60039;DHT22;45916;52.734;6.544;2023-11-21T00:47:41;8.50;99.90
60039;DHT22;45916;52.734;6.544;2023-11-21T00:50:08;8.60;99.90
60039;DHT22;45916;52.734;6.544;2023-11-21T00:52:34;8.60;99.90
60039;DHT22;45916;52.734;6.544;2023-11-21T00:55:02;8.60;99.90
60039;DHT22;45916;52.734;6.544;2023-11-21T00:57:29;8.60;99.90
60039;DHT22;45916;52.734;6.544;2023-11-21T00:59:55;8.70;99.90
60039;DHT22;45916;52.734;6.544;2023-11-21T01:02:20;8.70;99.90
60039;DHT22;45916;52.734;6.544;2023-11-21T01:04:46;8.70;99.90
60039;DHT22;45916;52.734;6.544;2023-11-21T01:07:13;8.70;99.90
60039;DHT22;45916;52.734;6.544;2023-11-21T01:09:39;8.70;99.90
60039;DHT22;45916;52.734;6.544;2023-11-21T01:12:04;8.70;99.90
60039;DHT22;45916;52.734;6.544;2023-11-21T01:14:30;8.70;99.90
60039;DHT22;45916;52.734;6.544;2023-11-21T01:16:56;8.70;99.90
60039;DHT22;45916;52.734;6.544;2023-11-21T01:19:21;8.70;99.90
60039;DHT22;45916;52.734;6.544;2023-11-21T01:21:47;8.80;99.90
60039;DHT22;45916;52.734;6.544;2023-11-21T01:24:13;8.80;99.90
60039;DHT22;45916;52.734;6.544;2023-11-21T01:26:39;8.80;99.90
60039;DHT22;45916;52.734;6.544;2023-11-21T01:29:04;8.80;99.90
60039;DHT22;45916;52.734;6.544;2023-11-21T01:31:30;8.70;99.90
60039;DHT22;45916;52.734;6.544;2023-11-21T01:33:57;8.80;99.90
60039;DHT22;45916;52.734;6.544;2023-11-21T01:36:22;8.80;99.90
60039;DHT22;45916;52.734;6.544;2023-11-21T01:38:48;8.80;99.90
60039;DHT22;45916;52.734;6.544;2023-11-21T01:41:14;8.80;99.90
60039;DHT22;45916;52.734;6.544;2023-11-21T01:43:41;8.80;99.90
60039;DHT22;45916;52.734;6.544;2023-11-21T01:46:08;8.80;99.90
60039;DHT22;45916;52.734;6.544;2023-11-21T01:48:34;8.90;99.90
60039;DHT22;45916;52.734;6.544;2023-11-21T01:51:01;8.90;99.90
60039;DHT22;45916;52.734;6.544;2023-11-21T01:53:27;8.90;99.90
60039;DHT22;45916;52.734;6.544;2023-11-21T01:55:55;8.80;99.90
60039;DHT22;45916;52.734;6.544;2023-11-21T01:58:21;8.90;99.90
60039;DHT22;45916;52.734;6.544;2023-11-21T02:00:47;8.90;99.90
60039;DHT22;45916;52.734;6.544;2023-11-21T02:03:16;8.90;99.90
60039;DHT22;45916;52.734;6.544;2023-11-21T02:05:42;8.90;99.90
60039;DHT22;45916;52.734;6.544;2023-11-21T02:08:08;8.90;99.90
60039;DHT22;45916;52.734;6.544;2023-11-21T02:10:35;8.90;99.90
60039;DHT22;45916;52.734;6.544;2023-11-21T02:13:02;8.90;99.90
60039;DHT22;45916;52.734;6.544;2023-11-21T02:15:29;8.90;99.90
60039;DHT22;45916;52.734;6.544;2023-11-21T02:17:55;8.90;99.90
60039;DHT22;45916;52.734;6.544;2023-11-21T02:20:24;8.90;99.90
60039;DHT22;45916;52.734;6.544;2023-11-21T02:22:56;8.90;99.90
60039;DHT22;45916;52.734;6.544;2023-11-21T02:25:32;8.90;99.90
60039;DHT22;45916;52.734;6.544;2023-11-21T02:28:00;8.90;99.90
60039;DHT22;45916;52.734;6.544;2023-11-21T02:30:27;8.90;99.90
60039;DHT22;45916;52.734;6.544;2023-11-21T02:32:59;8.90;99.90
60039;DHT22;45916;52.734;6.544;2023-11-21T02:35:26;8.90;99.90
60039;DHT22;45916;52.734;6.544;2023-11-21T02:37:52;8.90;99.90
60039;DHT22;45916;52.734;6.544;2023-11-21T02:40:18;8.90;99.90
60039;DHT22;45916;52.734;6.544;2023-11-21T02:42:49;8.90;99.90
60039;DHT22;45916;52.734;6.544;2023-11-21T02:45:20;8.90;99.90
60039;DHT22;45916;52.734;6.544;2023-11-21T02:47:49;9.00;99.90
60039;DHT22;45916;52.734;6.544;2023-11-21T02:50:15;8.90;99.90
60039;DHT22;45916;52.734;6.544;2023-11-21T02:52:41;8.90;99.90
60039;DHT22;45916;52.734;6.544;2023-11-21T02:55:07;9.00;99.90
60039;DHT22;45916;52.734;6.544;2023-11-21T02:57:33;9.00;99.90
60039;DHT22;45916;52.734;6.544;2023-11-21T02:59:59;9.00;99.90
60039;DHT22;45916;52.734;6.544;2023-11-21T03:02:25;8.90;99.90
60039;DHT22;45916;52.734;6.544;2023-11-21T03:04:51;9.00;99.90
60039;DHT22;45916;52.734;6.544;2023-11-21T03:07:17;9.00;99.90
60039;DHT22;45916;52.734;6.544;2023-11-21T03:09:45;9.00;99.90
60039;DHT22;45916;52.734;6.544;2023-11-21T03:12:11;9.00;99.90
60039;DHT22;45916;52.734;6.544;2023-11-21T03:14:38;9.00;99.90
60039;DHT22;45916;52.734;6.544;2023-11-21T03:17:04;9.00;99.90
60039;DHT22;45916;52.734;6.544;2023-11-21T03:19:31;9.00;99.90
60039;DHT22;45916;52.734;6.544;2023-11-21T03:21:56;9.00;99.90
60039;DHT22;45916;52.734;6.544;2023-11-21T03:24:22;9.00;99.90
60039;DHT22;45916;52.734;6.544;2023-11-21T03:26:48;9.00;99.90
60039;DHT22;45916;52.734;6.544;2023-11-21T03:29:14;9.00;99.90
60039;DHT22;45916;52.734;6.544;2023-11-21T03:31:40;9.00;99.90
60039;DHT22;45916;52.734;6.544;2023-11-21T03:34:06;9.00;99.90
60039;DHT22;45916;52.734;6.544;2023-11-21T03:36:32;9.00;99.90
60039;DHT22;45916;52.734;6.544;2023-11-21T03:38:57;9.10;99.90
60039;DHT22;45916;52.734;6.544;2023-11-21T03:41:23;9.10;99.90
60039;DHT22;45916;52.734;6.544;2023-11-21T03:43:49;9.00;99.90
60039;DHT22;45916;52.734;6.544;2023-11-21T03:46:14;9.00;99.90
60039;DHT22;45916;52.734;6.544;2023-11-21T03:48:40;9.00;99.90
60039;DHT22;45916;52.734;6.544;2023-11-21T03:51:07;9.10;99.90
60039;DHT22;45916;52.734;6.544;2023-11-21T03:53:33;9.10;99.90
60039;DHT22;45916;52.734;6.544;2023-11-21T03:55:58;9.10;99.90
60039;DHT22;45916;52.734;6.544;2023-11-21T03:58:27;9.00;99.90
60039;DHT22;45916;52.734;6.544;2023-11-21T04:00:52;9.00;99.90
60039;DHT22;45916;52.734;6.544;2023-11-21T04:03:18;9.00;99.90
60039;DHT22;45916;52.734;6.544;2023-11-21T04:05:45;9.00;99.90
60039;DHT22;45916;52.734;6.544;2023-11-21T04:08:11;9.00;99.90
60039;DHT22;45916;52.734;6.544;2023-11-21T04:10:37;9.00;99.90
60039;DHT22;45916;52.734;6.544;2023-11-21T04:13:05;9.10;99.90
60039;DHT22;45916;52.734;6.544;2023-11-21T04:15:32;9.00;99.90
60039;DHT22;45916;52.734;6.544;2023-11-21T04:17:58;9.00;99.90
60039;DHT22;45916;52.734;6.544;2023-11-21T04:20:24;9.00;99.90
60039;DHT22;45916;52.734;6.544;2023-11-21T04:22:50;9.00;99.90
60039;DHT22;45916;52.734;6.544;2023-11-21T04:25:16;9.00;99.90
60039;DHT22;45916;52.734;6.544;2023-11-21T04:27:43;9.00;99.90
60039;DHT22;45916;52.734;6.544;2023-11-21T04:30:13;9.00;99.90
60039;DHT22;45916;52.734;6.544;2023-11-21T04:32:39;9.00;99.90
60039;DHT22;45916;52.734;6.544;2023-11-21T04:35:05;9.00;99.90
60039;DHT22;45916;52.734;6.544;2023-11-21T04:37:31;9.00;99.90
60039;DHT22;45916;52.734;6.544;2023-11-21T04:39:56;9.00;99.90
60039;DHT22;45916;52.734;6.544;2023-11-21T04:42:22;8.90;99.90
60039;DHT22;45916;52.734;6.544;2023-11-21T04:44:49;8.90;99.90
60039;DHT22;45916;52.734;6.544;2023-11-21T04:47:14;8.90;99.90
60039;DHT22;45916;52.734;6.544;2023-11-21T04:49:43;8.90;99.90
60039;DHT22;45916;52.734;6.544;2023-11-21T04:52:12;8.90;99.90
60039;DHT22;45916;52.734;6.544;2023-11-21T04:54:38;8.90;99.90
60039;DHT22;45916;52.734;6.544;2023-11-21T04:57:05;8.80;99.90
60039;DHT22;45916;52.734;6.544;2023-11-21T04:59:34;8.90;99.90
60039;DHT22;45916;52.734;6.544;2023-11-21T05:01:59;8.90;99.90
60039;DHT22;45916;52.734;6.544;2023-11-21T05:04:28;8.90;99.90
60039;DHT22;45916;52.734;6.544;2023-11-21T05:06:54;9.00;99.90
60039;DHT22;45916;52.734;6.544;2023-11-21T05:09:19;9.00;99.90
60039;DHT22;45916;52.734;6.544;2023-11-21T05:11:45;9.00;99.90
60039;DHT22;45916;52.734;6.544;2023-11-21T05:14:11;9.00;99.90
60039;DHT22;45916;52.734;6.544;2023-11-21T05:16:37;9.10;99.90
60039;DHT22;45916;52.734;6.544;2023-11-21T05:19:03;9.10;99.90
60039;DHT22;45916;52.734;6.544;2023-11-21T05:21:29;9.10;99.90
60039;DHT22;45916;52.734;6.544;2023-11-21T05:23:57;9.10;99.90
60039;DHT22;45916;52.734;6.544;2023-11-21T05:26:23;9.10;99.90
60039;DHT22;45916;52.734;6.544;2023-11-21T05:28:49;9.10;99.90
60039;DHT22;45916;52.734;6.544;2023-11-21T05:31:14;9.10;99.90
60039;DHT22;45916;52.734;6.544;2023-11-21T05:33:41;9.20;99.90
60039;DHT22;45916;52.734;6.544;2023-11-21T05:36:07;9.10;99.90
60039;DHT22;45916;52.734;6.544;2023-11-21T05:38:34;9.10;99.90
60039;DHT22;45916;52.734;6.544;2023-11-21T05:41:01;9.10;99.90
60039;DHT22;45916;52.734;6.544;2023-11-21T05:43:26;9.00;99.90
60039;DHT22;45916;52.734;6.544;2023-11-21T05:45:54;9.00;99.90
60039;DHT22;45916;52.734;6.544;2023-11-21T05:48:20;9.00;99.90
60039;DHT22;45916;52.734;6.544;2023-11-21T05:50:46;8.90;99.90
60039;DHT22;45916;52.734;6.544;2023-11-21T05:53:13;8.90;99.90
60039;DHT22;45916;52.734;6.544;2023-11-21T05:55:41;9.00;99.90
60039;DHT22;45916;52.734;6.544;2023-11-21T05:58:08;8.90;99.90
60039;DHT22;45916;52.734;6.544;2023-11-21T06:00:34;9.00;99.90
60039;DHT22;45916;52.734;6.544;2023-11-21T06:03:00;9.00;99.90
60039;DHT22;45916;52.734;6.544;2023-11-21T06:05:26;8.90;99.90
60039;DHT22;45916;52.734;6.544;2023-11-21T06:07:56;9.00;99.90
60039;DHT22;45916;52.734;6.544;2023-11-21T06:10:24;9.00;99.90
60039;DHT22;45916;52.734;6.544;2023-11-21T06:12:50;8.90;99.90
60039;DHT22;45916;52.734;6.544;2023-11-21T06:15:16;9.00;99.90
60039;DHT22;45916;52.734;6.544;2023-11-21T06:17:44;9.00;99.90
60039;DHT22;45916;52.734;6.544;2023-11-21T06:20:14;9.00;99.90
60039;DHT22;45916;52.734;6.544;2023-11-21T06:22:48;9.10;99.90
60039;DHT22;45916;52.734;6.544;2023-11-21T06:25:14;9.10;99.90
60039;DHT22;45916;52.734;6.544;2023-11-21T06:27:43;9.10;99.90
60039;DHT22;45916;52.734;6.544;2023-11-21T06:30:14;9.10;99.90
60039;DHT22;45916;52.734;6.544;2023-11-21T06:32:42;9.10;99.90
60039;DHT22;45916;52.734;6.544;2023-11-21T06:35:11;9.10;99.90
60039;DHT22;45916;52.734;6.544;2023-11-21T06:37:38;9.10;99.90
60039;DHT22;45916;52.734;6.544;2023-11-21T06:40:04;9.10;99.90
60039;DHT22;45916;52.734;6.544;2023-11-21T06:42:30;9.10;99.90
60039;DHT22;45916;52.734;6.544;2023-11-21T06:44:56;9.10;99.90
60039;DHT22;45916;52.734;6.544;2023-11-21T06:47:23;9.10;99.90
60039;DHT22;45916;52.734;6.544;2023-11-21T06:49:53;9.10;99.90
60039;DHT22;45916;52.734;6.544;2023-11-21T06:52:19;9.10;99.90
60039;DHT22;45916;52.734;6.544;2023-11-21T06:54:45;9.10;99.90
60039;DHT22;45916;52.734;6.544;2023-11-21T06:57:13;9.10;99.90
60039;DHT22;45916;52.734;6.544;2023-11-21T06:59:39;9.10;99.90
60039;DHT22;45916;52.734;6.544;2023-11-21T07:02:04;9.10;99.90
60039;DHT22;45916;52.734;6.544;2023-11-21T07:04:32;9.10;99.90
60039;DHT22;45916;52.734;6.544;2023-11-21T07:06:58;9.10;99.90
60039;DHT22;45916;52.734;6.544;2023-11-21T07:09:24;9.10;99.90
60039;DHT22;45916;52.734;6.544;2023-11-21T07:11:51;9.20;99.90
60039;DHT22;45916;52.734;6.544;2023-11-21T07:14:17;9.10;99.90
60039;DHT22;45916;52.734;6.544;2023-11-21T07:16:45;9.20;99.90
60039;DHT22;45916;52.734;6.544;2023-11-21T07:19:11;9.20;99.90
60039;DHT22;45916;52.734;6.544;2023-11-21T07:21:38;9.10;99.90
60039;DHT22;45916;52.734;6.544;2023-11-21T07:24:05;9.20;99.90
60039;DHT22;45916;52.734;6.544;2023-11-21T07:26:32;9.20;99.90
60039;DHT22;45916;52.734;6.544;2023-11-21T07:29:04;9.20;99.90
60039;DHT22;45916;52.734;6.544;2023-11-21T07:31:30;9.20;99.90
60039;DHT22;45916;52.734;6.544;2023-11-21T07:33:55;9.20;99.90
60039;DHT22;45916;52.734;6.544;2023-11-21T07:36:24;9.20;99.90
60039;DHT22;45916;52.734;6.544;2023-11-21T07:38:50;9.30;99.90
60039;DHT22;45916;52.734;6.544;2023-11-21T07:41:18;9.20;99.90
60039;DHT22;45916;52.734;6.544;2023-11-21T07:43:47;9.20;99.90
60039;DHT22;45916;52.734;6.544;2023-11-21T07:46:13;9.20;99.90
60039;DHT22;45916;52.734;6.544;2023-11-21T07:48:40;9.20;99.90
60039;DHT22;45916;52.734;6.544;2023-11-21T07:51:07;9.30;99.90
60039;DHT22;45916;52.734;6.544;2023-11-21T07:53:34;9.30;99.90
60039;DHT22;45916;52.734;6.544;2023-11-21T07:56:07;9.30;99.90
60039;DHT22;45916;52.734;6.544;2023-11-21T07:58:34;9.30;99.90
60039;DHT22;45916;52.734;6.544;2023-11-21T08:01:00;9.30;99.90
60039;DHT22;45916;52.734;6.544;2023-11-21T08:03:26;9.30;99.90
60039;DHT22;45916;52.734;6.544;2023-11-21T08:06:00;9.30;99.90
60039;DHT22;45916;52.734;6.544;2023-11-21T08:08:28;9.40;99.90
60039;DHT22;45916;52.734;6.544;2023-11-21T08:10:54;9.40;99.90
60039;DHT22;45916;52.734;6.544;2023-11-21T08:13:24;9.50;99.90
60039;DHT22;45916;52.734;6.544;2023-11-21T08:15:50;9.50;99.90
60039;DHT22;45916;52.734;6.544;2023-11-21T08:18:16;9.60;99.90
60039;DHT22;45916;52.734;6.544;2023-11-21T08:20:43;9.60;99.90
60039;DHT22;45916;52.734;6.544;2023-11-21T08:23:09;9.70;99.90
60039;DHT22;45916;52.734;6.544;2023-11-21T08:25:34;9.70;99.90
60039;DHT22;45916;52.734;6.544;2023-11-21T08:28:00;9.80;99.90
60039;DHT22;45916;52.734;6.544;2023-11-21T08:30:27;9.90;99.90
60039;DHT22;45916;52.734;6.544;2023-11-21T08:32:55;10.00;99.90
60039;DHT22;45916;52.734;6.544;2023-11-21T08:35:24;10.00;99.90
60039;DHT22;45916;52.734;6.544;2023-11-21T08:37:53;10.10;99.90
60039;DHT22;45916;52.734;6.544;2023-11-21T08:40:19;10.10;99.90
60039;DHT22;45916;52.734;6.544;2023-11-21T08:42:46;10.20;99.90
60039;DHT22;45916;52.734;6.544;2023-11-21T08:45:14;10.20;99.90
60039;DHT22;45916;52.734;6.544;2023-11-21T08:47:39;10.30;99.90
60039;DHT22;45916;52.734;6.544;2023-11-21T08:50:06;10.30;99.90
60039;DHT22;45916;52.734;6.544;2023-11-21T08:52:34;10.30;99.90
60039;DHT22;45916;52.734;6.544;2023-11-21T08:55:00;10.30;99.90
60039;DHT22;45916;52.734;6.544;2023-11-21T08:57:33;10.30;99.90
60039;DHT22;45916;52.734;6.544;2023-11-21T08:59:59;10.30;99.90
60039;DHT22;45916;52.734;6.544;2023-11-21T09:02:28;10.30;99.90
60039;DHT22;45916;52.734;6.544;2023-11-21T09:04:53;10.30;99.90
60039;DHT22;45916;52.734;6.544;2023-11-21T09:07:19;10.30;99.90
60039;DHT22;45916;52.734;6.544;2023-11-21T09:09:46;10.20;99.90
60039;DHT22;45916;52.734;6.544;2023-11-21T09:12:13;10.30;99.90
60039;DHT22;45916;52.734;6.544;2023-11-21T09:14:38;10.30;99.90
60039;DHT22;45916;52.734;6.544;2023-11-21T09:17:05;10.20;99.90
60039;DHT22;45916;52.734;6.544;2023-11-21T09:19:37;10.20;99.90
60039;DHT22;45916;52.734;6.544;2023-11-21T09:22:03;10.10;99.90
60039;DHT22;45916;52.734;6.544;2023-11-21T09:24:31;10.10;99.90
60039;DHT22;45916;52.734;6.544;2023-11-21T09:26:57;10.00;99.90
60039;DHT22;45916;52.734;6.544;2023-11-21T09:29:22;10.00;99.90
60039;DHT22;45916;52.734;6.544;2023-11-21T09:31:48;9.90;99.90
60039;DHT22;45916;52.734;6.544;2023-11-21T09:34:15;9.90;99.90
60039;DHT22;45916;52.734;6.544;2023-11-21T09:36:40;9.80;99.90
60039;DHT22;45916;52.734;6.544;2023-11-21T09:39:06;9.80;99.90
60039;DHT22;45916;52.734;6.544;2023-11-21T09:41:43;9.70;99.90
60039;DHT22;45916;52.734;6.544;2023-11-21T09:44:13;9.70;99.90
60039;DHT22;45916;52.734;6.544;2023-11-21T09:46:42;9.60;99.90
60039;DHT22;45916;52.734;6.544;2023-11-21T09:49:11;9.50;99.90
60039;DHT22;45916;52.734;6.544;2023-11-21T09:51:45;9.50;99.90
60039;DHT22;45916;52.734;6.544;2023-11-21T09:54:12;9.50;99.90
60039;DHT22;45916;52.734;6.544;2023-11-21T09:56:38;9.40;99.90
60039;DHT22;45916;52.734;6.544;2023-11-21T09:59:05;9.40;99.90
60039;DHT22;45916;52.734;6.544;2023-11-21T10:01:36;9.30;99.90
60039;DHT22;45916;52.734;6.544;2023-11-21T10:04:03;9.30;99.90
60039;DHT22;45916;52.734;6.544;2023-11-21T10:06:29;9.30;99.90
60039;DHT22;45916;52.734;6.544;2023-11-21T10:08:56;9.30;99.90
60039;DHT22;45916;52.734;6.544;2023-11-21T10:11:24;9.20;99.90
60039;DHT22;45916;52.734;6.544;2023-11-21T10:13:53;9.20;99.90
60039;DHT22;45916;52.734;6.544;2023-11-21T10:16:19;9.20;99.90
60039;DHT22;45916;52.734;6.544;2023-11-21T10:18:48;9.20;99.90
60039;DHT22;45916;52.734;6.544;2023-11-21T10:21:15;9.10;99.90
60039;DHT22;45916;52.734;6.544;2023-11-21T10:23:41;9.10;99.90
60039;DHT22;45916;52.734;6.544;2023-11-21T10:26:07;9.10;99.90
60039;DHT22;45916;52.734;6.544;2023-11-21T10:28:54;9.10;99.90
60039;DHT22;45916;52.734;6.544;2023-11-21T10:31:21;9.10;99.90
60039;DHT22;45916;52.734;6.544;2023-11-21T10:33:46;9.10;99.90
60039;DHT22;45916;52.734;6.544;2023-11-21T10:36:12;9.20;99.90
60039;DHT22;45916;52.734;6.544;2023-11-21T10:38:42;9.20;99.90
60039;DHT22;45916;52.734;6.544;2023-11-21T10:41:11;9.20;99.90
60039;DHT22;45916;52.734;6.544;2023-11-21T10:43:38;9.30;99.90
60039;DHT22;45916;52.734;6.544;2023-11-21T10:46:05;9.20;99.90
60039;DHT22;45916;52.734;6.544;2023-11-21T10:48:32;9.20;99.90
60039;DHT22;45916;52.734;6.544;2023-11-21T10:50:58;9.20;99.90
60039;DHT22;45916;52.734;6.544;2023-11-21T10:53:28;9.20;99.90
60039;DHT22;45916;52.734;6.544;2023-11-21T10:56:05;9.20;99.90
60039;DHT22;45916;52.734;6.544;2023-11-21T10:58:33;9.20;99.90
60039;DHT22;45916;52.734;6.544;2023-11-21T11:01:03;9.20;99.90
60039;DHT22;45916;52.734;6.544;2023-11-21T11:03:31;9.20;99.90
60039;DHT22;45916;52.734;6.544;2023-11-21T11:05:59;9.30;99.90
60039;DHT22;45916;52.734;6.544;2023-11-21T11:08:26;9.30;99.90
60039;DHT22;45916;52.734;6.544;2023-11-21T11:10:53;9.30;99.90
60039;DHT22;45916;52.734;6.544;2023-11-21T11:13:19;9.30;99.90
60039;DHT22;45916;52.734;6.544;2023-11-21T11:15:48;9.20;99.90
60039;DHT22;45916;52.734;6.544;2023-11-21T11:18:14;9.30;99.90
60039;DHT22;45916;52.734;6.544;2023-11-21T11:20:42;9.30;99.90
60039;DHT22;45916;52.734;6.544;2023-11-21T11:26:29;9.30;99.90
60039;DHT22;45916;52.734;6.544;2023-11-21T11:29:14;9.40;99.90
60039;DHT22;45916;52.734;6.544;2023-11-21T11:34:56;9.30;99.90
60039;DHT22;45916;52.734;6.544;2023-11-21T11:37:25;9.30;99.90
60039;DHT22;45916;52.734;6.544;2023-11-21T11:39:52;9.30;99.90
60039;DHT22;45916;52.734;6.544;2023-11-21T11:42:21;9.30;99.90
60039;DHT22;45916;52.734;6.544;2023-11-21T11:44:48;9.30;99.90
60039;DHT22;45916;52.734;6.544;2023-11-21T11:50:10;9.40;99.90
60039;DHT22;45916;52.734;6.544;2023-11-21T11:52:42;9.40;99.90
60039;DHT22;45916;52.734;6.544;2023-11-21T11:55:13;9.50;99.90
60039;DHT22;45916;52.734;6.544;2023-11-21T11:57:41;9.40;99.90
60039;DHT22;45916;52.734;6.544;2023-11-21T12:00:20;9.50;99.90
60039;DHT22;45916;52.734;6.544;2023-11-21T12:02:50;9.50;99.90
60039;DHT22;45916;52.734;6.544;2023-11-21T12:05:18;9.50;99.90
60039;DHT22;45916;52.734;6.544;2023-11-21T12:10:16;9.60;99.90
60039;DHT22;45916;52.734;6.544;2023-11-21T12:12:54;9.60;99.90
60039;DHT22;45916;52.734;6.544;2023-11-21T12:15:21;9.50;99.90
60039;DHT22;45916;52.734;6.544;2023-11-21T12:17:47;9.60;99.90
60039;DHT22;45916;52.734;6.544;2023-11-21T12:20:18;9.60;99.90
60039;DHT22;45916;52.734;6.544;2023-11-21T12:22:55;9.60;99.90
60039;DHT22;45916;52.734;6.544;2023-11-21T12:25:26;9.70;99.90
60039;DHT22;45916;52.734;6.544;2023-11-21T12:27:55;9.60;99.90
60039;DHT22;45916;52.734;6.544;2023-11-21T12:30:23;9.60;99.90
60039;DHT22;45916;52.734;6.544;2023-11-21T12:32:50;9.60;99.90
60039;DHT22;45916;52.734;6.544;2023-11-21T12:35:17;9.50;99.90
60039;DHT22;45916;52.734;6.544;2023-11-21T12:37:45;9.50;99.90
60039;DHT22;45916;52.734;6.544;2023-11-21T12:40:13;9.50;99.90
60039;DHT22;45916;52.734;6.544;2023-11-21T12:42:47;9.40;99.90
60039;DHT22;45916;52.734;6.544;2023-11-21T12:47:50;9.40;99.90
60039;DHT22;45916;52.734;6.544;2023-11-21T12:50:23;9.40;99.90
60039;DHT22;45916;52.734;6.544;2023-11-21T12:52:52;9.30;99.90
60039;DHT22;45916;52.734;6.544;2023-11-21T12:55:22;9.30;99.90
60039;DHT22;45916;52.734;6.544;2023-11-21T12:57:50;9.20;99.90
60039;DHT22;45916;52.734;6.544;2023-11-21T13:00:33;9.20;99.90
60039;DHT22;45916;52.734;6.544;2023-11-21T13:03:06;9.20;99.90
60039;DHT22;45916;52.734;6.544;2023-11-21T13:05:40;9.10;99.90
60039;DHT22;45916;52.734;6.544;2023-11-21T13:08:11;9.10;99.90
60039;DHT22;45916;52.734;6.544;2023-11-21T13:10:43;9.10;99.90
60039;DHT22;45916;52.734;6.544;2023-11-21T13:13:13;9.10;99.90
60039;DHT22;45916;52.734;6.544;2023-11-21T13:15:56;9.20;99.90
60039;DHT22;45916;52.734;6.544;2023-11-21T13:18:25;9.20;99.90
60039;DHT22;45916;52.734;6.544;2023-11-21T13:21:00;9.20;99.90
60039;DHT22;45916;52.734;6.544;2023-11-21T13:23:26;9.20;99.90
60039;DHT22;45916;52.734;6.544;2023-11-21T13:25:53;9.10;99.90
60039;DHT22;45916;52.734;6.544;2023-11-21T13:28:19;9.10;99.90
60039;DHT22;45916;52.734;6.544;2023-11-21T13:30:47;9.10;99.90
60039;DHT22;45916;52.734;6.544;2023-11-21T13:33:14;9.10;99.90
60039;DHT22;45916;52.734;6.544;2023-11-21T13:35:43;9.10;99.90
60039;DHT22;45916;52.734;6.544;2023-11-21T13:38:15;9.20;99.90
60039;DHT22;45916;52.734;6.544;2023-11-21T13:40:49;9.20;99.90
60039;DHT22;45916;52.734;6.544;2023-11-21T13:43:16;9.30;99.90
60039;DHT22;45916;52.734;6.544;2023-11-21T13:45:43;9.30;99.90
60039;DHT22;45916;52.734;6.544;2023-11-21T13:48:10;9.30;99.90
60039;DHT22;45916;52.734;6.544;2023-11-21T13:50:43;9.30;99.90
60039;DHT22;45916;52.734;6.544;2023-11-21T13:53:29;9.10;99.90
60039;DHT22;45916;52.734;6.544;2023-11-21T13:55:55;9.00;99.90
60039;DHT22;45916;52.734;6.544;2023-11-21T13:58:23;8.90;99.90
60039;DHT22;45916;52.734;6.544;2023-11-21T14:01:00;8.80;99.90
60039;DHT22;45916;52.734;6.544;2023-11-21T14:03:27;8.80;99.90
60039;DHT22;45916;52.734;6.544;2023-11-21T14:06:05;8.70;99.90
60039;DHT22;45916;52.734;6.544;2023-11-21T14:08:40;8.60;99.90
60039;DHT22;45916;52.734;6.544;2023-11-21T14:11:07;8.50;99.90
60039;DHT22;45916;52.734;6.544;2023-11-21T14:13:33;8.40;99.90
60039;DHT22;45916;52.734;6.544;2023-11-21T14:15:59;8.30;99.90
60039;DHT22;45916;52.734;6.544;2023-11-21T14:18:27;8.20;99.90
60039;DHT22;45916;52.734;6.544;2023-11-21T14:21:01;8.10;99.90
60039;DHT22;45916;52.734;6.544;2023-11-21T14:23:27;8.10;99.90
60039;DHT22;45916;52.734;6.544;2023-11-21T14:25:54;8.10;99.90
60039;DHT22;45916;52.734;6.544;2023-11-21T14:28:20;8.10;99.90
60039;DHT22;45916;52.734;6.544;2023-11-21T14:30:46;8.10;99.90
60039;DHT22;45916;52.734;6.544;2023-11-21T14:33:12;8.10;99.90
60039;DHT22;45916;52.734;6.544;2023-11-21T14:35:38;8.10;99.90
60039;DHT22;45916;52.734;6.544;2023-11-21T14:38:04;8.10;99.90
60039;DHT22;45916;52.734;6.544;2023-11-21T14:40:33;8.20;99.90
60039;DHT22;45916;52.734;6.544;2023-11-21T14:43:01;8.20;99.90
60039;DHT22;45916;52.734;6.544;2023-11-21T14:45:29;8.20;99.90
60039;DHT22;45916;52.734;6.544;2023-11-21T14:47:55;8.20;99.90
60039;DHT22;45916;52.734;6.544;2023-11-21T14:50:39;8.20;99.90
60039;DHT22;45916;52.734;6.544;2023-11-21T14:53:08;8.20;99.90
60039;DHT22;45916;52.734;6.544;2023-11-21T14:55:35;8.20;99.90
60039;DHT22;45916;52.734;6.544;2023-11-21T14:58:20;8.20;99.90
60039;DHT22;45916;52.734;6.544;2023-11-21T15:00:56;8.20;99.90
60039;DHT22;45916;52.734;6.544;2023-11-21T15:03:27;8.20;99.90
60039;DHT22;45916;52.734;6.544;2023-11-21T15:06:34;8.20;99.90
60039;DHT22;45916;52.734;6.544;2023-11-21T15:09:13;8.10;99.90
60039;DHT22;45916;52.734;6.544;2023-11-21T15:11:40;8.10;99.90
60039;DHT22;45916;52.734;6.544;2023-11-21T15:14:06;8.10;99.90
60039;DHT22;45916;52.734;6.544;2023-11-21T15:16:35;8.10;99.90
60039;DHT22;45916;52.734;6.544;2023-11-21T15:19:11;8.10;99.90
60039;DHT22;45916;52.734;6.544;2023-11-21T15:21:44;8.10;99.90
60039;DHT22;45916;52.734;6.544;2023-11-21T15:24:11;8.10;99.90
60039;DHT22;45916;52.734;6.544;2023-11-21T15:26:37;8.10;99.90
60039;DHT22;45916;52.734;6.544;2023-11-21T15:29:03;8.10;99.90
60039;DHT22;45916;52.734;6.544;2023-11-21T15:31:29;8.10;99.90
60039;DHT22;45916;52.734;6.544;2023-11-21T15:33:54;8.10;99.90
60039;DHT22;45916;52.734;6.544;2023-11-21T15:36:25;8.00;99.90
60039;DHT22;45916;52.734;6.544;2023-11-21T15:38:52;8.00;99.90
60039;DHT22;45916;52.734;6.544;2023-11-21T15:41:18;8.00;99.90
60039;DHT22;45916;52.734;6.544;2023-11-21T15:43:44;7.90;99.90
60039;DHT22;45916;52.734;6.544;2023-11-21T15:46:10;7.90;99.90
60039;DHT22;45916;52.734;6.544;2023-11-21T15:48:35;7.80;99.90
60039;DHT22;45916;52.734;6.544;2023-11-21T15:51:04;7.80;99.90
60039;DHT22;45916;52.734;6.544;2023-11-21T15:53:30;7.80;99.90
60039;DHT22;45916;52.734;6.544;2023-11-21T15:55:57;7.70;99.90
60039;DHT22;45916;52.734;6.544;2023-11-21T15:58:23;7.70;99.90
60039;DHT22;45916;52.734;6.544;2023-11-21T16:00:51;7.70;99.90
60039;DHT22;45916;52.734;6.544;2023-11-21T16:03:17;7.70;99.90